Tiempo atmosférico en la estación meteorológica de Morón De La Frontera, Sevilla (87 m.)



Fecha
DESCASC
Temp. máxima en grados centígrados (hora)
DESCASC
Temp. mínima en grados centígrados (hora)
DESCASC
Temp. media en grados centígrados
DESCASC
Racha de viento máxima en m/sg (hora)
DESCASC
Velocidad máxima media en intervalos de 10 minutos(hora)
DESCASC
Precipitaciones diarias en mm
DESCASC
Precipitaciones de 00:00 a 06:00 en mm
DESCASC
Precipitaciones de 06:00 a 12:00 en mm
DESCASC
Precipitaciones de 12:00 a 18:00 en mm
DESCASC
Precipitaciones de 18:00 a 24:00 en mm
DESCASC
19-10-2019 23.4 (15:50) 15.3 (00:00) 19.3 15.56 (21:20) 9.44 (20:00) 13.9 0 0 0 13.9
14-11-2019 14.5 (11:10) 9 (00:00) 11.8 12.22 (11:20) 6.39 (10:30) 0.8 0 0.1 0.7 0
02-11-2019 22.5 (15:30) 17.9 (00:00) 20.2 11.94 (16:30) 7.5 (16:30) 3.2 0 3.1 0.1 0
03-11-2019 22.7 (13:00) 15.9 (00:00) 19.3 11.94 (17:00) 7.22 (16:50) 0.3 0.3 0 0 0
23-10-2019 18.6 (14:30) 9.7 (00:00) 14.2 11.67 (17:20) 6.67 (17:20) 0 0 0 0 0
04-11-2019 21 (13:10) 16.1 (00:00) 18.6 11.39 (18:10) 6.11 (18:40) 0 0 0 0 0
13-11-2019 20 (15:50) 9.8 (00:00) 14.9 10.83 (12:30) 6.39 (12:30) 0.2 0.2 0 0 0
10-11-2019 17.7 (15:10) 9.2 (00:00) 13.5 10.83 (13:30) 6.94 (16:20) 0 0 0 0 0
01-11-2019 25.6 (15:00) 16.4 (00:00) 21 10.83 (17:30) 6.94 (17:30) 0 0 0 0 0
05-11-2019 20.5 (16:00) 12.1 (00:00) 16.3 10.28 (17:50) 5.83 (17:50) 1.1 1.1 0 0 0
22-10-2019 20.4 (15:00) 8.9 (08:40) 14.6 9.72 (16:30) 6.11 (16:20) 0 0 0 0 0
15-11-2019 14.2 (16:30) 4.3 (00:00) 9.3 7.78 (02:20) 4.72 (02:10) 0 0 0 0 0
06-11-2019 20 (16:10) 7.4 (00:00) 13.7 7.78 (19:20) 4.44 (19:00) 0 0 0 0 0
07-11-2019 19.9 (15:20) 10.2 (00:00) 15 7.78 (11:20) 5 (10:10) 2.1 0 1.8 0.3 0
28-10-2019 23.8 (16:00) 13.9 (00:00) 18.8 7.5 (15:50) 3.89 (15:40) 0 0 0 0 0
18-10-2019 26 (14:20) 13 (00:00) 19.5 7.5 (17:40) 3.33 (21:10) 0 0 0 0 0
20-10-2019 20.2 (17:30) 11.7 (00:00) 16 7.5 (17:00) 4.72 (01:40) 2.3 2.3 0 0 0
31-10-2019 25.8 (16:40) 16.5 (06:20) 21.1 6.94 (19:40) 4.17 (19:10) 0 0 0 0 0
09-11-2019 18 (16:40) 2.5 (00:00) 10.3 6.67 (22:30) 4.44 (23:59) 0 0 0 0 0
08-11-2019 18.1 (17:10) 7 (23:10) 12.6 6.67 (13:10) 3.33 (11:30) 0 0 0 0 0
30-10-2019 26.5 (15:40) 13.5 (00:00) 20 6.11 (20:40) 3.61 (20:10) 0 0 0 0 0
11-11-2019 18.2 (17:00) 12.3 (08:00) 15.3 5.56 (17:40) 3.61 (18:10) 0 0 0 0 0
24-10-2019 21 (18:00) 8.5 (00:00) 14.8 5.56 (02:50) 3.33 (02:50) 0 0 0 0 0
25-10-2019 27.7 (17:40) 9.8 (00:00) 18.8 5 (05:50) 3.61 (05:20) 0 0 0 0 0
16-11-2019 14.8 (16:20) 0.6 (00:00) 7.7 4.72 (22:30) 3.33 (23:30) 0 0 0 0 0
12-11-2019 19.8 (16:40) 8 (00:00) 13.9 4.44 (15:50) 2.22 (18:00) 0 0 0 0 0
29-10-2019 24.9 (15:40) 15.1 (00:00) 20 4.17 (21:20) 2.22 (14:50) 0.1 0 0.1 0 0
27-10-2019 27.3 (16:20) 11.1 (00:00) 19.2 3.61 (17:30) 2.22 (03:40) 0 0 0 0 0
21-10-2019 21.4 (17:20) 8.5 (00:00) 14.9 3.61 (22:00) 2.22 (22:00) 0 0 0 0 0
26-10-2019 29.7 (17:30) 8.4 (00:00) 19.1 2.5 (13:00) 1.67 (00:20) 0 0 0 0 0

Gráficas

Temp. máximas Temp. mínimas Temp. medias Precipitaciones Rachas de viento máximas Velocidades máximas media en intervalos de 10 minutos

Datos horarios

Fecha y hora oficial Temperatura (ºC) Velocidad del viento (km/h) Dirección del viento Racha (km/h) Dirección de racha Precipitación (mm) Presión (hPa) Tendencia (hPa) Humedad (%)
2019-11-16 23:00:00 7.6 9 Sudoeste 17 Sudoeste 0 -- -- 72
2019-11-16 22:00:00 7.6 8 Sudoeste 17 Sudoeste 0 -- -- 69
2019-11-16 21:00:00 8.6 11 Sudoeste 17 Sudoeste 0 -- -- 61
2019-11-16 20:00:00 8.4 8 Sur 11 Sudoeste 0 -- -- 54
2019-11-16 19:00:00 9.8 6 Sudoeste 9 Sudoeste 0 -- -- 48
2019-11-16 18:00:00 12.7 7 Sudoeste 15 Sudoeste 0 -- -- 43
2019-11-16 17:00:00 13.9 7 Oeste 13 Oeste 0 -- -- 40
2019-11-16 16:00:00 14.5 3 Oeste 14 Noroeste 0 -- -- 41
2019-11-16 15:00:00 13.6 6 Oeste 15 Oeste 0 -- -- 43
2019-11-16 14:00:00 13.4 4 Sudoeste 12 Oeste 0 -- -- 45
2019-11-16 13:00:00 11.7 2 Noroeste 8 Noroeste 0 -- -- 48
2019-11-16 12:00:00 10.6 2 Noroeste 9 Norte 0 -- -- 54
2019-11-16 11:00:00 9 2 Norte 8 Norte 0 -- -- 59
2019-11-16 10:00:00 6.6 4 Sur 8 Sur 0 -- -- 75
2019-11-16 09:00:00 2 6 Sudoeste 9 Sur 0 -- -- 85
2019-11-16 08:00:00 1 5 Sur 8 Sur 0 -- -- 86
2019-11-16 07:00:00 1.1 6 Sudoeste 8 Sur 0 -- -- 84
2019-11-16 06:00:00 2.4 5 Sudoeste 10 Sudoeste 0 -- -- 82
2019-11-16 05:00:00 3 5 Sur 10 Sudoeste 0 -- -- 79
2019-11-16 04:00:00 3.6 6 Sudoeste 9 Sudoeste 0 -- -- 78
2019-11-16 03:00:00 4.2 5 Sudoeste 11 Sudoeste 0 -- -- 73
2019-11-16 02:00:00 5.5 7 Sudoeste 14 Sudoeste 0 -- -- 70
2019-11-16 01:00:00 5 7 Sudoeste 12 Sudoeste 0 -- -- 68
2019-11-16 00:00:00 4.3 5 Sur 7 Sur 0 -- -- 66
2019-11-15 23:00:00 7.6 0 Calma 6 Norte 0 -- -- 58
2019-11-15 22:00:00 8.9 3 Noroeste 10 Oeste 0 -- -- 57
2019-11-15 21:00:00 10 4 Oeste 10 Oeste 0 -- -- 57
2019-11-15 20:00:00 9.2 4 Sur 7 Sudeste 0 -- -- 54
2019-11-15 19:00:00 10.9 0 Calma 6 Norte 0 -- -- 47
2019-11-15 18:00:00 12.5 4 Norte 15 Nordeste 0 -- -- 43
2019-11-15 17:00:00 13 9 Norte 22 Norte 0 -- -- 42
2019-11-15 16:00:00 13.4 5 Noroeste 18 Oeste 0 -- -- 41
2019-11-15 15:00:00 13.5 9 Sudoeste 19 Oeste 0 -- -- 45
2019-11-15 14:00:00 12.8 3 Oeste 17 Oeste 0 -- -- 46
2019-11-15 13:00:00 12.2 5 Norte 17 Norte 0 -- -- 47
2019-11-15 12:00:00 12 5 Noroeste 18 Oeste 0 -- -- 53
2019-11-15 11:00:00 10.3 6 Oeste 19 Oeste 0 -- -- 70
2019-11-15 10:00:00 8.5 11 Oeste 20 Oeste 0 -- -- 79
2019-11-15 09:00:00 7 10 Oeste 19 Oeste 0 -- -- 84
2019-11-15 08:00:00 6.7 11 Oeste 18 Sudoeste 0 -- -- 84
2019-11-15 07:00:00 6.3 8 Sudoeste 19 Sudoeste 0 -- -- 84
2019-11-15 06:00:00 6.8 10 Sudoeste 18 Sudoeste 0 -- -- 83
2019-11-15 05:00:00 7.3 11 Sudoeste 21 Oeste 0 -- -- 81
2019-11-15 04:00:00 8.2 13 Oeste 23 Sudoeste 0 -- -- 77
2019-11-15 03:00:00 8.9 10 Oeste 28 Oeste 0 -- -- 76
2019-11-15 02:00:00 9 17 Oeste 27 Oeste 0 -- -- 82
2019-11-15 01:00:00 9 13 Sudoeste 20 Oeste 0 -- -- 80
2019-11-15 00:00:00 9.2 10 Sudoeste 22 Sudoeste 0 -- -- 79
2019-11-14 23:00:00 9.1 12 Sudoeste 19 Oeste 0 -- -- 77
2019-11-14 22:00:00 10.1 15 Oeste 27 Oeste 0 -- -- 73
2019-11-14 21:00:00 10.2 14 Oeste 23 Oeste 0 -- -- 74
2019-11-14 20:00:00 10.5 11 Oeste 18 Sudoeste 0 -- -- 69
2019-11-14 19:00:00 11.7 3 Oeste 23 Oeste 0 -- -- 62
2019-11-14 18:00:00 13.2 7 Noroeste 24 Noroeste 0 -- -- 51
2019-11-14 17:00:00 14.2 3 Noroeste 18 Noroeste 0 -- -- 53
2019-11-14 16:00:00 14.3 4 Noroeste 24 Noroeste 0 -- -- 56
2019-11-14 15:00:00 13.7 10 Noroeste 22 Noroeste 0.1 -- -- 65
2019-11-14 14:00:00 11.6 9 Noroeste 37 Norte 0.6 -- -- 79
2019-11-14 13:00:00 13.8 4 Oeste 21 Noroeste 0 -- -- 84
2019-11-14 12:00:00 12.7 12 Oeste 44 Oeste 0.1 -- -- 87
2019-11-14 11:00:00 14.4 19 Oeste 38 Sudoeste 0 -- -- 69
2019-11-14 10:00:00 13.3 18 Sudoeste 35 Oeste 0 -- -- 75
2019-11-14 09:00:00 12.2 17 Sudoeste 35 Oeste 0 -- -- 80
2019-11-14 08:00:00 10.9 12 Oeste 19 Oeste 0 -- -- 84
2019-11-14 07:00:00 9.8 9 Sudoeste 19 Oeste 0 -- -- 90
2019-11-14 06:00:00 9.3 9 Sudoeste 19 Oeste 0 -- -- 90
2019-11-14 05:00:00 9.7 10 Oeste 22 Oeste 0 -- -- 90
2019-11-14 04:00:00 10.9 14 Oeste 22 Oeste 0 -- -- 89
2019-11-14 03:00:00 11.8 13 Sudoeste 21 Sudoeste 0 -- -- 87
2019-11-14 02:00:00 12.6 10 Sudoeste 18 Oeste 0 -- -- 86
2019-11-14 01:00:00 13.2 10 Sudoeste 17 Sudoeste 0 -- -- 85
2019-11-14 00:00:00 13.8 12 Sudoeste 19 Sudoeste 0 -- -- 84
2019-11-13 23:00:00 14.5 10 Sudoeste 18 Sudoeste 0 -- -- 83
2019-11-13 22:00:00 15.3 10 Sudoeste 20 Oeste 0 -- -- 81
2019-11-13 21:00:00 16.2 12 Sudoeste 24 Oeste 0 -- -- 78
2019-11-13 20:00:00 16.7 14 Sudoeste 28 Oeste 0 -- -- 75
2019-11-13 19:00:00 17.2 18 Oeste 30 Sudoeste 0 -- -- 69
2019-11-13 18:00:00 18.2 18 Oeste 30 Oeste 0 -- -- 61
2019-11-13 17:00:00 19.1 17 Oeste 28 Sudoeste 0 -- -- 59
2019-11-13 16:00:00 19.3 12 Oeste 25 Oeste 0 -- -- 54
2019-11-13 15:00:00 19.8 11 Oeste 31 Oeste 0 -- -- 60
2019-11-13 14:00:00 18.2 17 Oeste 35 Oeste 0 -- -- 64
2019-11-13 13:00:00 17.3 9 Oeste 39 Oeste 0 -- -- 69
2019-11-13 12:00:00 17.3 19 Oeste 34 Oeste 0 -- -- 68
2019-11-13 11:00:00 16.3 19 Oeste 33 Oeste 0 -- -- 73
2019-11-13 10:00:00 15.7 16 Oeste 29 Oeste 0 -- -- 77
2019-11-13 09:00:00 14.8 14 Sudoeste 24 Sudoeste 0 -- -- 83
2019-11-13 08:00:00 14.1 13 Sudoeste 23 Oeste 0 -- -- 86
2019-11-13 07:00:00 13.6 12 Sudoeste 23 Sudoeste 0 -- -- 87
2019-11-13 06:00:00 13.6 11 Sudoeste 17 Sudoeste 0.2 -- -- 85
2019-11-13 05:00:00 13.1 9 Sudoeste 21 Oeste 0 -- -- 83
2019-11-13 04:00:00 13.5 10 Sudoeste 23 Oeste 0 -- -- 72
2019-11-13 03:00:00 13.1 12 Sudoeste 20 Sudoeste 0 -- -- 71
2019-11-13 02:00:00 12.8 10 Oeste 17 Oeste 0 -- -- 68
2019-11-13 01:00:00 11.1 5 Sudoeste 13 Sudoeste 0 -- -- 67
2019-11-13 00:00:00 11.2 5 Oeste 11 Oeste 0 -- -- 61
2019-11-12 23:00:00 10.4 7 Sudoeste 10 Sudoeste 0 -- -- 59
2019-11-12 22:00:00 12.3 2 Noroeste 9 Sudoeste 0 -- -- 56
2019-11-12 21:00:00 12.5 4 Sudoeste 8 Sur 0 -- -- 54
2019-11-12 20:00:00 14.7 5 Sudoeste 12 Sudoeste 0 -- -- 49
2019-11-12 19:00:00 16.4 6 Sudoeste 12 Sudoeste 0 -- -- 44
2019-11-12 18:00:00 17.6 8 Oeste 16 Oeste 0 -- -- 41
2019-11-12 17:00:00 19.3 0 Calma 13 Norte 0 -- -- 37
2019-11-12 16:00:00 19.6 4 Noroeste 16 Norte 0 -- -- 36
2019-11-12 15:00:00 17.8 3 Norte 11 Norte 0 -- -- 44
2019-11-12 14:00:00 16.7 3 Norte 9 Norte 0 -- -- 53
2019-11-12 13:00:00 15.1 0 Calma 9 Sudeste 0 -- -- 64
2019-11-12 12:00:00 12.7 3 Sur 9 Sur 0 -- -- 93
2019-11-12 11:00:00 10.9 0 Calma 5 Sudoeste 0 -- -- 94
2019-11-12 10:00:00 9.7 0 Calma 5 Sudoeste 0 -- -- 94
2019-11-12 09:00:00 8.7 4 Sudoeste 6 Sudoeste 0 -- -- 94
2019-11-12 08:00:00 8.1 0 Calma 5 Sudoeste 0 -- -- 93
2019-11-12 07:00:00 8.5 0 Calma 4 Nordeste 0 -- -- 93
2019-11-12 06:00:00 9.1 4 Norte 7 Norte 0 -- -- 92
2019-11-12 05:00:00 8.5 3 Sur 5 Norte 0 -- -- 91
2019-11-12 04:00:00 10.1 2 Nordeste 8 Norte 0 -- -- 91
2019-11-12 03:00:00 10.5 4 Norte 8 Norte 0 -- -- 91
2019-11-12 02:00:00 10.9 0 Calma 4 Sudoeste 0 -- -- 89
2019-11-12 01:00:00 12.5 3 Sudoeste 8 Oeste 0 -- -- 89
2019-11-12 00:00:00 13.6 4 Sudoeste 10 Oeste 0 -- -- 87
2019-11-11 23:00:00 14.8 7 Sudoeste 12 Sudoeste 0 -- -- 85
2019-11-11 22:00:00 15 6 Sudoeste 12 Sudoeste 0 -- -- 83
2019-11-11 21:00:00 14.9 7 Sudoeste 13 Sudoeste 0 -- -- 80
2019-11-11 20:00:00 16.2 8 Sudoeste 19 Sudoeste 0 -- -- 76
2019-11-11 19:00:00 17.2 11 Sudoeste 19 Oeste 0 -- -- 75
2019-11-11 18:00:00 17.4 12 Oeste 20 Sudoeste 0 -- -- 74
2019-11-11 17:00:00 18 3 Oeste 20 Oeste 0 -- -- 71
2019-11-11 16:00:00 16.8 12 Oeste 18 Oeste 0 -- -- 74
2019-11-11 15:00:00 16.1 10 Oeste 20 Oeste 0 -- -- 72
2019-11-11 14:00:00 15.9 7 Oeste 16 Oeste 0 -- -- 71
2019-11-11 13:00:00 15.7 3 Oeste 15 Oeste 0 -- -- 71
2019-11-11 12:00:00 14.6 7 Oeste 15 Oeste 0 -- -- 74
2019-11-11 11:00:00 14.1 7 Sudoeste 12 Sudoeste 0 -- -- 78
2019-11-11 10:00:00 13.1 7 Sudoeste 12 Sudoeste 0 -- -- 83
2019-11-11 09:00:00 12.6 6 Sudoeste 11 Sudoeste 0 -- -- 85
2019-11-11 08:00:00 12.3 6 Sudoeste 8 Sur 0 -- -- 81
2019-11-11 07:00:00 12.5 4 Oeste 7 Oeste 0 -- -- 79
2019-11-11 06:00:00 12.6 3 Noroeste 14 Noroeste 0 -- -- 78
2019-11-11 05:00:00 12.8 3 Noroeste 14 Noroeste 0 -- -- 74
2019-11-11 04:00:00 13 0 Calma 14 Noroeste 0 -- -- 70
2019-11-11 03:00:00 13.2 5 Noroeste 18 Noroeste 0 -- -- 68
2019-11-11 02:00:00 13.4 8 Noroeste 18 Noroeste 0 -- -- 66
2019-11-11 01:00:00 13.6 2 Noroeste 13 Noroeste 0 -- -- 61
2019-11-11 00:00:00 13.8 3 Noroeste 15 Noroeste 0 -- -- 57
2019-11-10 23:00:00 14.1 6 Noroeste 12 Oeste 0 -- -- 54
2019-11-10 22:00:00 14.3 2 Noroeste 15 Norte 0 -- -- 50
2019-11-10 21:00:00 14.6 4 Noroeste 15 Norte 0 -- -- 49
2019-11-10 20:00:00 14 0 Calma 8 Nordeste 0 -- -- 49
2019-11-10 19:00:00 14.6 8 Norte 19 Nordeste 0 -- -- 46
2019-11-10 18:00:00 15.1 14 Norte 25 Nordeste 0 -- -- 43
2019-11-10 17:00:00 15.2 21 Nordeste 39 Norte 0 -- -- 43
2019-11-10 16:00:00 17.2 21 Norte 39 Norte 0 -- -- 33
2019-11-10 15:00:00 17.3 18 Norte 39 Norte 0 -- -- 34
2019-11-10 14:00:00 17.2 18 Norte 39 Norte 0 -- -- 35
2019-11-10 13:00:00 16.5 21 Norte 38 Norte 0 -- -- 41
2019-11-10 12:00:00 15.8 12 Norte 26 Norte 0 -- -- 45
2019-11-10 11:00:00 14.3 9 Norte 23 Norte 0 -- -- 57
2019-11-10 10:00:00 12.5 0 Calma 12 Noroeste 0 -- -- 72
2019-11-10 09:00:00 10.4 4 Noroeste 8 Norte 0 -- -- 81
2019-11-10 08:00:00 9.3 0 Calma 8 Noroeste 0 -- -- 80
2019-11-10 07:00:00 10 0 Calma 6 Noroeste 0 -- -- 78
2019-11-10 06:00:00 11.1 0 Calma 10 Noroeste 0 -- -- 75
2019-11-10 05:00:00 12 3 Noroeste 14 Norte 0 -- -- 73
2019-11-10 04:00:00 12.9 0 Calma 18 Oeste 0 -- -- 84
2019-11-10 03:00:00 13.9 10 Oeste 18 Oeste 0 -- -- 85
2019-11-10 02:00:00 14.2 9 Oeste 22 Oeste 0 -- -- 83
2019-11-10 01:00:00 14.5 14 Oeste 24 Oeste 0 -- -- 82
2019-11-10 00:00:00 14.1 16 Sudoeste 24 Sudoeste 0 -- -- 73
2019-11-09 23:00:00 13.7 13 Sudoeste 24 Sudoeste 0 -- -- 71
2019-11-09 22:00:00 13.5 14 Sudoeste 21 Sudoeste 0 -- -- 69
2019-11-09 21:00:00 13 10 Sudoeste 23 Sudoeste 0 -- -- 67
2019-11-09 20:00:00 13.3 13 Sudoeste 22 Sudoeste 0 -- -- 56
2019-11-09 19:00:00 14.4 8 Sudoeste 14 Sudoeste 0 -- -- 44
2019-11-09 18:00:00 16 8 Sudoeste 17 Oeste 0 -- -- 40
2019-11-09 17:00:00 16.8 9 Oeste 15 Oeste 0 -- -- 37
2019-11-09 16:00:00 17.3 3 Noroeste 18 Norte 0 -- -- 37
2019-11-09 15:00:00 16.8 2 Norte 16 Nordeste 0 -- -- 39
2019-11-09 14:00:00 16 2 Nordeste 13 Norte 0 -- -- 41
2019-11-09 13:00:00 14.5 3 Norte 11 Nordeste 0 -- -- 45
2019-11-09 12:00:00 13.6 3 Norte 9 Norte 0 -- -- 48
2019-11-09 11:00:00 12.9 2 Sudeste 7 Sur 0 -- -- 53
2019-11-09 10:00:00 9.6 2 Sur 4 Sudeste 0 -- -- 69
2019-11-09 09:00:00 6 0 Calma 7 Sudeste 0 -- -- 83
2019-11-09 08:00:00 3.7 4 Sudeste 6 Sudeste 0 -- -- 86
2019-11-09 07:00:00 2.9 5 Sudeste 7 Sudeste 0 -- -- 85
2019-11-09 06:00:00 3.9 5 Sur 7 Sur 0 -- -- 83
2019-11-09 05:00:00 4.5 5 Sur 8 Sudeste 0 -- -- 81
2019-11-09 04:00:00 5.2 3 Sudeste 10 Sudeste 0 -- -- 79
2019-11-09 03:00:00 5.5 4 Sur 8 Sur 0 -- -- 78
2019-11-09 02:00:00 5.3 6 Sur 11 Sur 0 -- -- 77
2019-11-09 01:00:00 5.9 4 Sur 8 Sur 0 -- -- 73
2019-11-09 00:00:00 7.9 0 Calma 8 Sudeste 0 -- -- 69
2019-11-08 23:00:00 7.3 5 Sur 9 Sur 0 -- -- 67
2019-11-08 22:00:00 8.4 6 Sudeste 10 Sur 0 -- -- 62
2019-11-08 21:00:00 9.8 2 Nordeste 8 Sudeste 0 -- -- 58
2019-11-08 20:00:00 11.6 0 Calma 6 Nordeste 0 -- -- 46
2019-11-08 19:00:00 13.6 0 Calma 6 Oeste 0 -- -- 39
2019-11-08 18:00:00 16.5 2 Oeste 12 Oeste 0 -- -- 32
2019-11-08 17:00:00 17.9 2 Noroeste 19 Norte 0 -- -- 31
2019-11-08 16:00:00 17.3 8 Norte 21 Norte 0 -- -- 31
2019-11-08 15:00:00 17.3 4 Noroeste 19 Norte 0 -- -- 35
2019-11-08 14:00:00 16.8 5 Noroeste 24 Noroeste 0 -- -- 37
2019-11-08 13:00:00 15.2 8 Norte 23 Norte 0 -- -- 44
2019-11-08 12:00:00 14.3 11 Norte 24 Norte 0 -- -- 46
2019-11-08 11:00:00 14 6 Noroeste 19 Norte 0 -- -- 62
2019-11-08 10:00:00 11.2 3 Oeste 12 Oeste 0 -- -- 81
2019-11-08 09:00:00 10.3 3 Oeste 12 Noroeste 0 -- -- 82
2019-11-08 08:00:00 9.2 0 Calma 19 Oeste 0 -- -- 83
2019-11-08 07:00:00 9.2 9 Oeste 17 Oeste 0 -- -- 82
2019-11-08 06:00:00 9.2 5 Oeste 13 Oeste 0 -- -- 81
2019-11-08 05:00:00 8.2 6 Oeste 11 Oeste 0 -- -- 82
2019-11-08 04:00:00 8.7 2 Noroeste 12 Oeste 0 -- -- 78
2019-11-08 03:00:00 9.4 2 Oeste 14 Oeste 0 -- -- 73
2019-11-08 02:00:00 9.5 0 Calma 7 Noroeste 0 -- -- 68
2019-11-08 01:00:00 9.8 0 Calma 7 Oeste 0 -- -- 65
2019-11-08 00:00:00 10.6 3 Noroeste 12 Noroeste 0 -- -- 60
2019-11-07 23:00:00 11.4 4 Noroeste 12 Noroeste 0 -- -- 57
2019-11-07 22:00:00 12.6 3 Norte 22 Norte 0 -- -- 53
2019-11-07 21:00:00 12.8 3 Norte 14 Norte 0 -- -- 55
2019-11-07 20:00:00 13.9 10 Norte 17 Norte 0 -- -- 53
2019-11-07 19:00:00 15.1 2 Noroeste 10 Norte 0 -- -- 53
2019-11-07 18:00:00 17.6 6 Norte 14 Nordeste 0 -- -- 43
2019-11-07 17:00:00 18.8 10 Norte 22 Norte 0 -- -- 39
2019-11-07 16:00:00 19.3 13 Norte 27 Norte 0 -- -- 42
2019-11-07 15:00:00 19 6 Norte 19 Norte 0 -- -- 57
2019-11-07 14:00:00 17.6 13 Norte 23 Norte 0 -- -- 68
2019-11-07 13:00:00 16.5 2 Noroeste 22 Sudoeste 0.3 -- -- 93
2019-11-07 12:00:00 15.2 12 Sudoeste 28 Sudoeste 0.4 -- -- 93
2019-11-07 11:00:00 14.1 15 Sudoeste 28 Sudoeste 1.1 -- -- 93
2019-11-07 10:00:00 14 17 Sudoeste 27 Sudoeste 0 -- -- 88
2019-11-07 09:00:00 12.8 13 Sudoeste 23 Sudoeste 0.3 -- -- 89
2019-11-07 08:00:00 12.4 9 Sudoeste 14 Sudoeste 0 -- -- 87
2019-11-07 07:00:00 11.9 7 Sudoeste 15 Sudoeste 0 -- -- 86
2019-11-07 06:00:00 11.9 12 Sudoeste 17 Sudoeste 0 -- -- 83
2019-11-07 05:00:00 10.9 9 Sudoeste 13 Sudoeste 0 -- -- 83
2019-11-07 04:00:00 10.5 6 Sudoeste 10 Sur 0 -- -- 83
2019-11-07 03:00:00 10.7 7 Sudoeste 12 Sudoeste 0 -- -- 81
2019-11-07 02:00:00 11.7 8 Sudoeste 13 Sudoeste 0 -- -- 79
2019-11-07 01:00:00 11.3 7 Sudoeste 12 Sudoeste 0 -- -- 80
2019-11-07 00:00:00 11.9 6 Sudoeste 11 Sudoeste 0 -- -- 79
2019-11-06 23:00:00 12 8 Sudoeste 11 Sudoeste 0 -- -- 79
2019-11-06 22:00:00 13.8 5 Oeste 15 Oeste 0 -- -- 75
2019-11-06 21:00:00 14.9 9 Oeste 19 Oeste 0 -- -- 74
2019-11-06 20:00:00 15.3 14 Oeste 28 Oeste 0 -- -- 69
2019-11-06 19:00:00 16.7 16 Oeste 26 Oeste 0 -- -- 54
2019-11-06 18:00:00 17.8 5 Sudoeste 17 Sudoeste 0 -- -- 44
2019-11-06 17:00:00 19.5 2 Oeste 15 Oeste 0 -- -- 40
2019-11-06 16:00:00 19.8 4 Noroeste 18 Noroeste 0 -- -- 39
2019-11-06 15:00:00 19 4 Norte 15 Norte 0 -- -- 41
2019-11-06 14:00:00 18.4 4 Noroeste 19 Norte 0 -- -- 43
2019-11-06 13:00:00 16.6 6 Nordeste 12 Nordeste 0 -- -- 50
2019-11-06 12:00:00 15.5 2 Nordeste 10 Norte 0 -- -- 58
2019-11-06 11:00:00 14.7 0 Calma 8 Sudoeste 0 -- -- 69
2019-11-06 10:00:00 11.9 5 Sudoeste 10 Sudoeste 0 -- -- 82
2019-11-06 09:00:00 8.9 5 Sur 10 Sudoeste 0 -- -- 91
2019-11-06 08:00:00 8.1 5 Sudoeste 13 Sudoeste 0 -- -- 91
2019-11-06 07:00:00 7.6 6 Sudoeste 13 Sudoeste 0 -- -- 89
2019-11-06 06:00:00 8.9 8 Sudoeste 14 Sudoeste 0 -- -- 89
2019-11-06 05:00:00 9.1 8 Sudoeste 12 Sudoeste 0 -- -- 89
2019-11-06 04:00:00 8.4 6 Sudoeste 10 Sudoeste 0 -- -- 87
2019-11-06 03:00:00 9.5 5 Sudoeste 10 Sudoeste 0 -- -- 82
2019-11-06 02:00:00 11 5 Oeste 11 Oeste 0 -- -- 79
2019-11-06 01:00:00 11.1 4 Oeste 10 Oeste 0 -- -- 78
2019-11-06 00:00:00 12.6 0 Calma 9 Noroeste 0 -- -- 75
2019-11-05 23:00:00 13 5 Noroeste 10 Noroeste 0 -- -- 77
2019-11-05 22:00:00 14.3 0 Calma 16 Oeste 0 -- -- 79
2019-11-05 21:00:00 15.4 9 Oeste 19 Oeste 0 -- -- 79
2019-11-05 20:00:00 15.4 13 Oeste 25 Oeste 0 -- -- 75
2019-11-05 19:00:00 16.4 15 Oeste 30 Oeste 0 -- -- 68
2019-11-05 18:00:00 17.7 19 Oeste 37 Oeste 0 -- -- 58
2019-11-05 17:00:00 19.8 3 Noroeste 19 Noroeste 0 -- -- 41
2019-11-05 16:00:00 20.4 5 Noroeste 18 Oeste 0 -- -- 41
2019-11-05 15:00:00 19.1 4 Noroeste 16 Norte 0 -- -- 45
2019-11-05 14:00:00 19.4 4 Noroeste 19 Noroeste 0 -- -- 46
2019-11-05 13:00:00 18.6 3 Oeste 18 Oeste 0 -- -- 50
2019-11-05 12:00:00 16.8 4 Noroeste 17 Oeste 0 -- -- 52
2019-11-05 11:00:00 16.2 3 Oeste 15 Oeste 0 -- -- 60
2019-11-05 10:00:00 15.4 2 Oeste 15 Sudoeste 0 -- -- 73
2019-11-05 09:00:00 13.4 0 Calma 10 Noroeste 0 -- -- 87
2019-11-05 08:00:00 12.3 3 Oeste 15 Oeste 0 -- -- 89
2019-11-05 07:00:00 12.6 6 Oeste 12 Oeste 0 -- -- 84
2019-11-05 06:00:00 13.5 7 Oeste 11 Oeste 0 -- -- 83
2019-11-05 05:00:00 14.5 0 Calma 14 Noroeste 0 -- -- 83
2019-11-05 04:00:00 14.9 0 Calma 17 Sudoeste 0 -- -- 88
2019-11-05 03:00:00 15 6 Oeste 17 Oeste 0 -- -- 90
2019-11-05 02:00:00 15.3 4 Oeste 16 Oeste 0.4 -- -- 90
2019-11-05 01:00:00 15.9 7 Noroeste 35 Oeste 0.7 -- -- 85
2019-11-05 00:00:00 17.5 17 Sudoeste 28 Sudoeste 0 -- -- 76
2019-11-04 23:00:00 17.3 18 Oeste 28 Sudoeste 0 -- -- 76
2019-11-04 22:00:00 17.4 17 Sudoeste 28 Sudoeste 0 -- -- 74
2019-11-04 21:00:00 18 17 Sudoeste 30 Oeste 0 -- -- 72
2019-11-04 20:00:00 18.4 18 Oeste 32 Sudoeste 0 -- -- 68
2019-11-04 19:00:00 18.8 19 Oeste 41 Oeste 0 -- -- 66
2019-11-04 18:00:00 19.3 20 Oeste 40 Sudoeste 0 -- -- 60
2019-11-04 17:00:00 20 21 Oeste 38 Sudoeste 0 -- -- 54
2019-11-04 16:00:00 20.3 20 Oeste 36 Oeste 0 -- -- 56
2019-11-04 15:00:00 20.3 16 Oeste 37 Oeste 0 -- -- 53
2019-11-04 14:00:00 20.5 10 Oeste 33 Oeste 0 -- -- 50
2019-11-04 13:00:00 20.7 7 Oeste 32 Oeste 0 -- -- 52
2019-11-04 12:00:00 19 15 Oeste 28 Oeste 0 -- -- 65
2019-11-04 11:00:00 18.8 15 Oeste 27 Oeste 0 -- -- 71
2019-11-04 10:00:00 17.6 14 Oeste 30 Oeste 0 -- -- 85
2019-11-04 09:00:00 16.9 13 Oeste 21 Oeste 0 -- -- 91
2019-11-04 08:00:00 16.6 12 Oeste 22 Oeste 0 -- -- 91
2019-11-04 07:00:00 16.7 12 Oeste 21 Oeste 0 -- -- 90
2019-11-04 06:00:00 16.3 5 Sudoeste 13 Oeste 0 -- -- 89
2019-11-04 05:00:00 16.9 4 Oeste 14 Oeste 0 -- -- 88
2019-11-04 04:00:00 17 9 Oeste 17 Oeste 0 -- -- 86
2019-11-04 03:00:00 17.1 9 Sudoeste 15 Sudoeste 0 -- -- 83
2019-11-04 02:00:00 17.1 9 Sudoeste 19 Sudoeste 0 -- -- 86
2019-11-04 01:00:00 16.7 11 Sudoeste 21 Sudoeste 0 -- -- 86
2019-11-04 00:00:00 16.8 13 Oeste 22 Oeste 0 -- -- 83
2019-11-03 23:00:00 17.4 12 Oeste 25 Oeste 0 -- -- 83
2019-11-03 22:00:00 17.6 15 Sudoeste 26 Sudoeste 0 -- -- 84
2019-11-03 21:00:00 18 16 Sudoeste 28 Sudoeste 0 -- -- 80
2019-11-03 20:00:00 19 17 Oeste 34 Oeste 0 -- -- 72
2019-11-03 19:00:00 19.6 19 Oeste 36 Oeste 0 -- -- 68
2019-11-03 18:00:00 20.5 19 Oeste 40 Oeste 0 -- -- 61
2019-11-03 17:00:00 20.9 26 Oeste 43 Oeste 0 -- -- 60
2019-11-03 16:00:00 21.8 20 Oeste 39 Oeste 0 -- -- 54
2019-11-03 15:00:00 21.5 15 Oeste 35 Oeste 0 -- -- 54
2019-11-03 14:00:00 20.8 12 Oeste 33 Noroeste 0 -- -- 56
2019-11-03 13:00:00 22.5 4 Noroeste 32 Oeste 0 -- -- 52
2019-11-03 12:00:00 20.1 10 Oeste 32 Oeste 0 -- -- 61
2019-11-03 11:00:00 19.1 6 Oeste 30 Oeste 0 -- -- 65
2019-11-03 10:00:00 17.9 12 Oeste 31 Oeste 0 -- -- 75
2019-11-03 09:00:00 16.6 15 Oeste 25 Oeste 0 -- -- 82
2019-11-03 08:00:00 16.2 8 Sudoeste 23 Oeste 0 -- -- 86
2019-11-03 07:00:00 16.9 8 Oeste 18 Oeste 0 -- -- 82
2019-11-03 06:00:00 17.1 7 Oeste 23 Oeste 0 -- -- 90
2019-11-03 05:00:00 17.5 6 Oeste 21 Oeste 0 -- -- 92
2019-11-03 04:00:00 17.5 5 Oeste 21 Oeste 0 -- -- 92
2019-11-03 03:00:00 17.6 14 Oeste 24 Oeste 0.2 -- -- 91
2019-11-03 02:00:00 17.7 14 Oeste 24 Oeste 0 -- -- 91
2019-11-03 01:00:00 17.7 9 Oeste 26 Oeste 0.1 -- -- 91
2019-11-03 00:00:00 17.9 18 Oeste 28 Oeste 0 -- -- 89
2019-11-02 23:00:00 18 13 Sudoeste 25 Sudoeste 0 -- -- 88
2019-11-02 22:00:00 18.1 15 Sudoeste 26 Sudoeste 0 -- -- 87
2019-11-02 21:00:00 18.1 15 Sudoeste 27 Sudoeste 0 -- -- 87
2019-11-02 20:00:00 18.3 15 Sudoeste 33 Oeste 0 -- -- 85
2019-11-02 19:00:00 19.1 21 Sudoeste 40 Oeste 0 -- -- 80
2019-11-02 18:00:00 20.1 24 Oeste 42 Oeste 0 -- -- 68
2019-11-02 17:00:00 21.4 26 Oeste 43 Oeste 0 -- -- 61
2019-11-02 16:00:00 22.3 26 Oeste 41 Oeste 0 -- -- 62
2019-11-02 15:00:00 21.8 23 Oeste 42 Oeste 0 -- -- 68
2019-11-02 14:00:00 21.8 7 Oeste 25 Oeste 0.1 -- -- 76
2019-11-02 13:00:00 21.8 9 Oeste 30 Oeste 0 -- -- 74
2019-11-02 12:00:00 20.4 0 Calma 34 Oeste 0.4 -- -- 86
2019-11-02 11:00:00 19.8 13 Oeste 32 Oeste 0 -- -- 88
2019-11-02 10:00:00 19 18 Oeste 30 Oeste 0 -- -- 91
2019-11-02 09:00:00 18.5 14 Sudoeste 27 Sudoeste 1 -- -- 93
2019-11-02 08:00:00 18.3 17 Sudoeste 29 Oeste 0.4 -- -- 93
2019-11-02 07:00:00 18.3 17 Oeste 34 Oeste 1.3 -- -- 93
2019-11-02 06:00:00 18.4 19 Oeste 33 Sudoeste 0 -- -- 93
2019-11-02 05:00:00 18.8 17 Sudoeste 30 Sudoeste 0 -- -- 90
2019-11-02 04:00:00 18.6 17 Sudoeste 28 Sudoeste 0 -- -- 88
2019-11-02 03:00:00 18.6 16 Sudoeste 24 Sudoeste 0 -- -- 88
2019-11-02 02:00:00 18.8 13 Sudoeste 30 Sudoeste 0 -- -- 87
2019-11-02 01:00:00 18.9 15 Sudoeste 28 Sudoeste 0 -- -- 85
2019-11-02 00:00:00 19.2 18 Sudoeste 30 Sudoeste 0 -- -- 85
2019-11-01 23:00:00 19.2 16 Sudoeste 30 Sudoeste 0 -- -- 85
2019-11-01 22:00:00 19.2 17 Sudoeste 32 Sudoeste 0 -- -- 84
2019-11-01 21:00:00 19.2 18 Sudoeste 30 Sudoeste 0 -- -- 84
2019-11-01 20:00:00 19.3 19 Sudoeste 35 Sudoeste 0 -- -- 83
2019-11-01 19:00:00 19.9 20 Oeste 36 Sudoeste 0 -- -- 79
2019-11-01 18:00:00 21.5 22 Oeste 39 Oeste 0 -- -- 70
2019-11-01 17:00:00 23.3 22 Oeste 37 Oeste 0 -- -- 62
2019-11-01 16:00:00 24 22 Oeste 37 Oeste 0 -- -- 58
2019-11-01 15:00:00 24.7 9 Oeste 27 Sudoeste 0 -- -- 54
2019-11-01 14:00:00 24.3 12 Oeste 23 Oeste 0 -- -- 57
2019-11-01 13:00:00 23.6 10 Sudoeste 19 Sudoeste 0 -- -- 60
2019-11-01 12:00:00 22.2 9 Sudoeste 15 Sudoeste 0 -- -- 67
2019-11-01 11:00:00 20.2 8 Sudoeste 13 Sudoeste 0 -- -- 79
2019-11-01 10:00:00 19.1 9 Sudoeste 15 Sudoeste 0 -- -- 86
2019-11-01 09:00:00 17.3 10 Sudoeste 15 Sudoeste 0 -- -- 92
2019-11-01 08:00:00 16.8 8 Sudoeste 13 Sudoeste 0 -- -- 92
2019-11-01 07:00:00 16.7 7 Sudoeste 12 Sudoeste 0 -- -- 92
2019-11-01 06:00:00 16.9 6 Sudoeste 10 Sudoeste 0 -- -- 91
2019-11-01 05:00:00 16.8 5 Sur 12 Oeste 0 -- -- 91
2019-11-01 04:00:00 17.6 6 Sudoeste 10 Sudoeste 0 -- -- 90
2019-11-01 03:00:00 18 4 Sudoeste 13 Oeste 0 -- -- 88
2019-11-01 02:00:00 18.8 7 Sudoeste 14 Sudoeste 0 -- -- 86
2019-11-01 01:00:00 19.3 6 Sudoeste 15 Sudoeste 0 -- -- 85
2019-11-01 00:00:00 19.8 10 Sudoeste 19 Sudoeste 0 -- -- 83
2019-10-31 23:00:00 20.3 11 Sudoeste 20 Sudoeste 0 -- -- 81
2019-10-31 22:00:00 20.6 14 Sudoeste 25 Sudoeste 0 -- -- 80
2019-10-31 21:00:00 20.8 13 Sudoeste 24 Oeste 0 -- -- 78
2019-10-31 20:00:00 21.3 15 Sudoeste 25 Sudoeste 0 -- -- 75
2019-10-31 19:00:00 22.7 14 Oeste 21 Oeste 0 -- -- 67
2019-10-31 18:00:00 23.8 12 Oeste 23 Oeste 0 -- -- 63
2019-10-31 17:00:00 25 9 Oeste 23 Oeste 0 -- -- 57
2019-10-31 16:00:00 25.4 5 Oeste 17 Oeste 0 -- -- 54
2019-10-31 15:00:00 25.1 5 Oeste 14 Oeste 0 -- -- 57
2019-10-31 14:00:00 23.6 5 Oeste 19 Oeste 0 -- -- 62
2019-10-31 13:00:00 23.2 8 Sudoeste 15 Sudoeste 0 -- -- 68
2019-10-31 12:00:00 21.1 6 Oeste 13 Oeste 0 -- -- 78
2019-10-31 11:00:00 20 5 Oeste 12 Oeste 0 -- -- 82
2019-10-31 10:00:00 19.2 7 Oeste 14 Oeste 0 -- -- 83
2019-10-31 09:00:00 18.5 6 Sudoeste 12 Sudoeste 0 -- -- 83
2019-10-31 08:00:00 17.2 5 Sudoeste 7 Sudoeste 0 -- -- 84
2019-10-31 07:00:00 17 5 Sudoeste 10 Sudoeste 0 -- -- 85
2019-10-31 06:00:00 16.7 4 Sudoeste 11 Sudoeste 0 -- -- 85
2019-10-31 05:00:00 17.3 6 Sudoeste 12 Sudoeste 0 -- -- 86
2019-10-31 04:00:00 17.6 6 Sudoeste 11 Sudoeste 0 -- -- 85
2019-10-31 03:00:00 18.1 7 Sudoeste 14 Sudoeste 0 -- -- 85
2019-10-31 02:00:00 18.4 9 Sudoeste 15 Sudoeste 0 -- -- 87
2019-10-31 01:00:00 18.5 7 Sudoeste 18 Sudoeste 0 -- -- 87
2019-10-31 00:00:00 18.7 9 Sudoeste 15 Sudoeste 0 -- -- 86
2019-10-30 23:00:00 19.1 8 Sudoeste 17 Sudoeste 0 -- -- 84
2019-10-30 22:00:00 19.4 9 Sudoeste 17 Oeste 0 -- -- 78
2019-10-30 21:00:00 20.1 10 Oeste 22 Oeste 0 -- -- 70
2019-10-30 20:00:00 21.3 12 Oeste 21 Oeste 0 -- -- 58
2019-10-30 19:00:00 22.7 6 Oeste 13 Sudoeste 0 -- -- 46
2019-10-30 18:00:00 23.8 0 Calma 11 Sudoeste 0 -- -- 43
2019-10-30 17:00:00 24.7 3 Oeste 16 Oeste 0 -- -- 42
2019-10-30 16:00:00 26.4 3 Noroeste 15 Noroeste 0 -- -- 40
2019-10-30 15:00:00 25.7 3 Noroeste 13 Norte 0 -- -- 42
2019-10-30 14:00:00 25.2 3 Noroeste 10 Oeste 0 -- -- 47
2019-10-30 13:00:00 23.5 3 Noroeste 7 Norte 0 -- -- 55
2019-10-30 12:00:00 21.5 4 Norte 10 Norte 0 -- -- 64
2019-10-30 11:00:00 20.3 7 Nordeste 14 Nordeste 0 -- -- 70
2019-10-30 10:00:00 16.5 4 Nordeste 8 Nordeste 0 -- -- 93
2019-10-30 09:00:00 14.8 3 Nordeste 5 Nordeste 0 -- -- 93
2019-10-30 08:00:00 13.7 4 Este 5 Este 0 -- -- 93
2019-10-30 07:00:00 14.4 4 Este 6 Este 0 -- -- 93
2019-10-30 06:00:00 14.3 3 Este 4 Este 0 -- -- 91
2019-10-30 05:00:00 14.4 0 Calma 3 Noroeste 0 -- -- 88
2019-10-30 04:00:00 15.8 0 Calma 5 Sur 0 -- -- 87
2019-10-30 03:00:00 16.2 4 Sudoeste 10 Sur 0 -- -- 86
2019-10-30 02:00:00 16.1 6 Sur 10 Sur 0 -- -- 86
2019-10-30 01:00:00 16 7 Sur 9 Sudoeste 0 -- -- 84
2019-10-30 00:00:00 16.5 6 Sur 9 Sudoeste 0 -- -- 82
2019-10-29 23:00:00 17.4 6 Sudoeste 10 Sudoeste 0 -- -- 79
2019-10-29 22:00:00 18.3 5 Sudoeste 15 Sudoeste 0 -- -- 74
2019-10-29 21:00:00 19.5 3 Oeste 12 Noroeste 0 -- -- 69
2019-10-29 20:00:00 20.3 3 Sudoeste 5 Oeste 0 -- -- 54
2019-10-29 19:00:00 22.3 0 Calma 4 Norte 0 -- -- 51
2019-10-29 18:00:00 23.9 4 Nordeste 8 Norte 0 -- -- 48
2019-10-29 17:00:00 24.8 3 Norte 13 Nordeste 0 -- -- 47
2019-10-29 16:00:00 24.6 6 Norte 12 Nordeste 0 -- -- 49
2019-10-29 15:00:00 24 6 Nordeste 14 Norte 0 -- -- 52
2019-10-29 14:00:00 24.1 3 Oeste 12 Norte 0 -- -- 56
2019-10-29 13:00:00 23.3 3 Oeste 11 Norte 0 -- -- 58
2019-10-29 12:00:00 21.8 3 Noroeste 9 Oeste 0 -- -- 68
2019-10-29 11:00:00 20.1 5 Sudeste 10 Este 0 -- -- 79
2019-10-29 10:00:00 18.2 0 Calma 5 Sudeste 0 -- -- 87
2019-10-29 09:00:00 17.6 0 Calma 5 Norte 0 -- -- 87
2019-10-29 08:00:00 17.1 2 Sudoeste 9 Sudoeste 0 -- -- 84
2019-10-29 07:00:00 17.2 6 Sudoeste 9 Sudoeste 0.1 -- -- 84
2019-10-29 06:00:00 17.6 6 Sudoeste 10 Sudoeste 0 -- -- 79
2019-10-29 05:00:00 17.6 3 Sudoeste 6 Sudoeste 0 -- -- 79
2019-10-29 04:00:00 17.1 4 Sur 6 Sur 0 -- -- 80
2019-10-29 03:00:00 16.7 4 Sur 10 Sur 0 -- -- 82
2019-10-29 02:00:00 15.7 4 Sur 6 Sur 0 -- -- 83
2019-10-29 01:00:00 15.2 4 Sur 6 Sur 0 -- -- 83
2019-10-29 00:00:00 15.9 3 Sur 7 Sudoeste 0 -- -- 83
2019-10-28 23:00:00 17.1 4 Sudoeste 11 Oeste 0 -- -- 84
2019-10-28 22:00:00 18.1 5 Oeste 13 Oeste 0 -- -- 80
2019-10-28 21:00:00 18.9 0 Calma 11 Oeste 0 -- -- 69
2019-10-28 20:00:00 19.9 4 Sudoeste 12 Oeste 0 -- -- 64
2019-10-28 19:00:00 21.1 0 Calma 16 Oeste 0 -- -- 58
2019-10-28 18:00:00 21.9 10 Oeste 19 Oeste 0 -- -- 55
2019-10-28 17:00:00 22.7 5 Oeste 23 Oeste 0 -- -- 53
2019-10-28 16:00:00 23.1 9 Oeste 27 Oeste 0 -- -- 53
2019-10-28 15:00:00 22.7 11 Oeste 23 Oeste 0 -- -- 53
2019-10-28 14:00:00 23 9 Sudoeste 27 Oeste 0 -- -- 51
2019-10-28 13:00:00 23 2 Oeste 15 Sudoeste 0 -- -- 53
2019-10-28 12:00:00 21 4 Norte 10 Norte 0 -- -- 60
2019-10-28 11:00:00 19.9 3 Nordeste 9 Nordeste 0 -- -- 69
2019-10-28 10:00:00 18.8 5 Sudeste 10 Sudeste 0 -- -- 78
2019-10-28 09:00:00 15.8 3 Sudeste 6 Sudeste 0 -- -- 88
2019-10-28 08:00:00 14 3 Sudeste 9 Sudeste 0 -- -- 88
2019-10-28 07:00:00 14.3 4 Sur 8 Sudoeste 0 -- -- 84
2019-10-28 06:00:00 15.5 0 Calma 5 Sudoeste 0 -- -- 84
2019-10-28 05:00:00 15.6 0 Calma 6 Oeste 0 -- -- 86
2019-10-28 04:00:00 15.1 5 Sur 7 Sur 0 -- -- 87
2019-10-28 03:00:00 15.3 0 Calma 4 Sudeste 0 -- -- 87
2019-10-28 02:00:00 15.6 3 Sudeste 6 Sudeste 0 -- -- 87
2019-10-28 01:00:00 14.9 5 Sudeste 8 Sudeste 0 -- -- 86
2019-10-28 00:00:00 15 4 Sur 5 Sur 0 -- -- 83
2019-10-27 23:00:00 16.2 4 Sur 7 Sudoeste 0 -- -- 82
2019-10-27 22:00:00 17.9 5 Oeste 8 Oeste 0 -- -- 81
2019-10-27 21:00:00 19 0 Calma 12 Oeste 0 -- -- 76
2019-10-27 20:00:00 20.4 2 Oeste 12 Oeste 0 -- -- 67
2019-10-27 19:00:00 22 2 Oeste 10 Oeste 0 -- -- 55
2019-10-27 18:00:00 24.8 0 Calma 13 Sudoeste 0 -- -- 39
2019-10-27 17:00:00 26.6 3 Oeste 11 Norte 0 -- -- 36
2019-10-27 16:00:00 26.8 3 Oeste 13 Sudoeste 0 -- -- 38
2019-10-27 15:00:00 25.5 5 Oeste 12 Oeste 0 -- -- 39
2019-10-27 14:00:00 24.8 3 Norte 7 Norte 0 -- -- 41
2019-10-27 13:00:00 23.6 0 Calma 8 Noroeste 0 -- -- 44
2019-10-27 12:00:00 21.8 3 Norte 7 Nordeste 0 -- -- 48
2019-10-27 11:00:00 20.7 2 Oeste 6 Oeste 0 -- -- 51
2019-10-27 10:00:00 18.5 0 Calma 5 Sur 0 -- -- 59
2019-10-27 09:00:00 14.2 2 Sur 5 Sur 0 -- -- 68
2019-10-27 08:00:00 11.3 0 Calma 3 Sudoeste 0 -- -- 72
2019-10-27 07:00:00 12.2 0 Calma 6 Sudeste 0 -- -- 70
2019-10-27 06:00:00 12.4 4 Sur 9 Sur 0 -- -- 68
2019-10-27 05:00:00 12.5 8 Sur 9 Sur 0 -- -- 68
2019-10-27 04:00:00 12.4 7 Sur 10 Sur 0 -- -- 66
2019-10-27 03:00:00 13 5 Sur 10 Sudoeste 0 -- -- 65
2019-10-27 02:00:00 13.1 7 Sur 9 Sur 0 -- -- 63
2019-10-27 01:00:00 14.2 5 Sur 7 Sur 0 -- -- 58
2019-10-27 00:00:00 15.3 5 Sur 7 Sudoeste 0 -- -- 51
2019-10-26 23:00:00 16.9 3 Sur 9 Oeste 0 -- -- 43
2019-10-26 22:00:00 18.2 5 Sur 8 Sur 0 -- -- 41
2019-10-26 21:00:00 21.7 4 Este 8 Nordeste 0 -- -- 32
2019-10-26 20:00:00 24.6 6 Nordeste 7 Nordeste 0 -- -- 27
2019-10-26 19:00:00 27.4 3 Norte 8 Nordeste 0 -- -- 23
2019-10-26 18:00:00 28.9 3 Nordeste 9 Oeste 0 -- -- 22
2019-10-26 17:00:00 29.1 3 Norte 7 Norte 0 -- -- 23
2019-10-26 16:00:00 29.3 0 Calma 8 Norte 0 -- -- 24
2019-10-26 15:00:00 27.5 5 Norte 9 Norte 0 -- -- 26
2019-10-26 14:00:00 25.8 5 Norte 9 Nordeste 0 -- -- 31
2019-10-26 13:00:00 23.3 5 Norte 9 Norte 0 -- -- 39
2019-10-26 12:00:00 20.4 3 Nordeste 8 Norte 0 -- -- 46
2019-10-26 11:00:00 16.5 3 Este 6 Nordeste 0 -- -- 62
2019-10-26 10:00:00 12.7 0 Calma 6 Este 0 -- -- 74
2019-10-26 09:00:00 9.1 0 Calma 6 Este 0 -- -- 79
2019-10-26 08:00:00 8.8 3 Este 7 Este 0 -- -- 80
2019-10-26 07:00:00 9.3 5 Nordeste 6 Nordeste 0 -- -- 78
2019-10-26 06:00:00 9.4 4 Sudeste 9 Sudeste 0 -- -- 78
2019-10-26 05:00:00 9.8 4 Sudeste 7 Sur 0 -- -- 78
2019-10-26 04:00:00 11 0 Calma 4 Sur 0 -- -- 74
2019-10-26 03:00:00 11.9 0 Calma 6 Norte 0 -- -- 69
2019-10-26 02:00:00 14.7 4 Norte 7 Nordeste 0 -- -- 67
2019-10-26 01:00:00 13.6 3 Nordeste 9 Sur 0 -- -- 65
2019-10-26 00:00:00 14.3 6 Sudoeste 8 Sudoeste 0 -- -- 60
2019-10-25 23:00:00 16.5 0 Calma 7 Oeste 0 -- -- 52
2019-10-25 22:00:00 18.4 5 Sudoeste 16 Sudoeste 0 -- -- 46
2019-10-25 21:00:00 20.9 9 Sudoeste 15 Sudoeste 0 -- -- 39
2019-10-25 20:00:00 23.7 4 Oeste 8 Oeste 0 -- -- 35
2019-10-25 19:00:00 26.2 3 Oeste 6 Sur 0 -- -- 31
2019-10-25 18:00:00 27.5 0 Calma 8 Sudoeste 0 -- -- 30
2019-10-25 17:00:00 26.8 3 Norte 8 Sudoeste 0 -- -- 30
2019-10-25 16:00:00 26.4 3 Oeste 6 Oeste 0 -- -- 31
2019-10-25 15:00:00 25.2 0 Calma 7 Sudoeste 0 -- -- 34
2019-10-25 14:00:00 23.2 2 Norte 10 Norte 0 -- -- 38
2019-10-25 13:00:00 21 4 Norte 9 Norte 0 -- -- 43
2019-10-25 12:00:00 18.4 4 Nordeste 9 Nordeste 0 -- -- 53
2019-10-25 11:00:00 15.4 6 Nordeste 9 Nordeste 0 -- -- 64
2019-10-25 10:00:00 12.6 4 Este 9 Nordeste 0 -- -- 75
2019-10-25 09:00:00 9.9 6 Nordeste 13 Nordeste 0 -- -- 82
2019-10-25 08:00:00 10.4 9 Nordeste 13 Este 0 -- -- 79
2019-10-25 07:00:00 11 7 Este 15 Este 0 -- -- 77
2019-10-25 06:00:00 11.2 10 Nordeste 18 Este 0 -- -- 76
2019-10-25 05:00:00 11.4 10 Nordeste 15 Este 0 -- -- 76
2019-10-25 04:00:00 11.2 6 Nordeste 12 Nordeste 0 -- -- 77
2019-10-25 03:00:00 11.6 8 Nordeste 12 Nordeste 0 -- -- 77
2019-10-25 02:00:00 11.4 6 Este 8 Este 0 -- -- 75
2019-10-25 01:00:00 12.4 4 Nordeste 13 Este 0 -- -- 69
2019-10-25 00:00:00 13.1 8 Este 13 Este 0 -- -- 64
2019-10-24 23:00:00 13.6 6 Este 9 Este 0 -- -- 60
2019-10-24 22:00:00 15.2 5 Este 9 Este 0 -- -- 54
2019-10-24 21:00:00 16.8 4 Este 6 Este 0 -- -- 48
2019-10-24 20:00:00 18.4 3 Este 9 Nordeste 0 -- -- 43
2019-10-24 19:00:00 19.5 3 Nordeste 9 Nordeste 0 -- -- 39
2019-10-24 18:00:00 20.9 0 Calma 14 Nordeste 0 -- -- 38
2019-10-24 17:00:00 20.3 5 Nordeste 13 Norte 0 -- -- 39
2019-10-24 16:00:00 19.6 6 Sudoeste 17 Norte 0 -- -- 45
2019-10-24 15:00:00 18.9 4 Oeste 12 Sudoeste 0 -- -- 46
2019-10-24 14:00:00 19.1 4 Oeste 12 Sudoeste 0 -- -- 50
2019-10-24 13:00:00 17 6 Sudoeste 12 Oeste 0 -- -- 57
2019-10-24 12:00:00 15.7 5 Sudoeste 14 Sudoeste 0 -- -- 65
2019-10-24 11:00:00 13.7 9 Sudoeste 18 Sudoeste 0 -- -- 75
2019-10-24 10:00:00 11.3 8 Sudoeste 13 Sudoeste 0 -- -- 87
2019-10-24 09:00:00 8.7 7 Sur 13 Sudoeste 0 -- -- 91
2019-10-24 08:00:00 9.6 8 Sudoeste 15 Sudoeste 0 -- -- 90
2019-10-24 07:00:00 9.2 9 Sudoeste 12 Sudoeste 0 -- -- 90
2019-10-24 06:00:00 10.5 7 Sudoeste 14 Oeste 0 -- -- 87
2019-10-24 05:00:00 10.9 9 Oeste 14 Sudoeste 0 -- -- 86
2019-10-24 04:00:00 11.5 5 Oeste 16 Oeste 0 -- -- 83
2019-10-24 03:00:00 11.9 12 Oeste 20 Oeste 0 -- -- 80
2019-10-24 02:00:00 12.9 7 Oeste 17 Oeste 0 -- -- 78
2019-10-24 01:00:00 13.6 5 Oeste 13 Oeste 0 -- -- 79
2019-10-24 00:00:00 14.4 9 Oeste 15 Oeste 0 -- -- 76
2019-10-23 23:00:00 13.8 12 Sudoeste 17 Sudoeste 0 -- -- 80
2019-10-23 22:00:00 14.2 11 Sudoeste 17 Sudoeste 0 -- -- 77
2019-10-23 21:00:00 14.7 9 Sudoeste 17 Oeste 0 -- -- 70
2019-10-23 20:00:00 15.6 5 Noroeste 14 Noroeste 0 -- -- 66
2019-10-23 19:00:00 15.5 4 Oeste 24 Oeste 0 -- -- 71
2019-10-23 18:00:00 15.2 8 Oeste 42 Oeste 0 -- -- 75
2019-10-23 17:00:00 17.2 19 Oeste 38 Oeste 0 -- -- 57
2019-10-23 16:00:00 18.1 5 Oeste 31 Oeste 0 -- -- 50
2019-10-23 15:00:00 17.8 11 Oeste 35 Oeste 0 -- -- 50
2019-10-23 14:00:00 17.3 6 Oeste 30 Oeste 0 -- -- 57
2019-10-23 13:00:00 15.5 15 Oeste 27 Sudoeste 0 -- -- 67
2019-10-23 12:00:00 13.7 14 Sudoeste 25 Oeste 0 -- -- 71
2019-10-23 11:00:00 11.7 14 Oeste 24 Sudoeste 0 -- -- 76
2019-10-23 10:00:00 11.1 10 Sudoeste 21 Sudoeste 0 -- -- 80
2019-10-23 09:00:00 9.7 12 Sudoeste 20 Sudoeste 0 -- -- 83
2019-10-23 08:00:00 10.1 8 Sudoeste 22 Sudoeste 0 -- -- 90
2019-10-23 07:00:00 10.3 13 Sudoeste 19 Sudoeste 0 -- -- 88
2019-10-23 06:00:00 10.4 8 Sudoeste 17 Sudoeste 0 -- -- 85
2019-10-23 05:00:00 10.4 7 Sudoeste 17 Sudoeste 0 -- -- 84
2019-10-23 04:00:00 10.7 10 Sudoeste 18 Sur 0 -- -- 83
2019-10-23 03:00:00 11.2 10 Sudoeste 23 Sudoeste 0 -- -- 79
2019-10-23 02:00:00 12 12 Sudoeste 18 Sudoeste 0 -- -- 77
2019-10-23 01:00:00 12.9 9 Sudoeste 18 Sudoeste 0 -- -- 73
2019-10-23 00:00:00 13.7 8 Sudoeste 18 Sudoeste 0 -- -- 71
2019-10-22 23:00:00 13.2 8 Sudoeste 13 Sudoeste 0 -- -- 72
2019-10-22 22:00:00 14.1 6 Sudoeste 17 Sudoeste 0 -- -- 68
2019-10-22 21:00:00 14.9 10 Oeste 23 Oeste 0 -- -- 64
2019-10-22 20:00:00 15.3 14 Oeste 26 Oeste 0 -- -- 60
2019-10-22 19:00:00 14.9 12 Sudoeste 28 Sudoeste 0 -- -- 66
2019-10-22 18:00:00 15.5 20 Sudoeste 30 Sudoeste 0 -- -- 63
2019-10-22 17:00:00 16.9 19 Sudoeste 35 Oeste 0 -- -- 60
2019-10-22 16:00:00 18.8 12 Oeste 22 Oeste 0 -- -- 42
2019-10-22 15:00:00 19.7 5 Oeste 17 Oeste 0 -- -- 40
2019-10-22 14:00:00 18.9 5 Oeste 13 Oeste 0 -- -- 45
2019-10-22 13:00:00 17.4 0 Calma 9 Nordeste 0 -- -- 52
2019-10-22 12:00:00 15.1 5 Norte 11 Norte 0 -- -- 61
2019-10-22 11:00:00 14.2 2 Nordeste 6 Norte 0 -- -- 69
2019-10-22 10:00:00 11.2 4 Nordeste 7 Nordeste 0 -- -- 84
2019-10-22 09:00:00 9.2 0 Calma 4 Sur 0 -- -- 87
2019-10-22 08:00:00 9.1 3 Sur 5 Sudeste 0 -- -- 86
2019-10-22 07:00:00 9.9 4 Sudeste 7 Sudeste 0 -- -- 83
2019-10-22 06:00:00 10.4 5 Nordeste 17 Norte 0 -- -- 83
2019-10-22 05:00:00 10.3 5 Sur 5 Sur 0 -- -- 81
2019-10-22 04:00:00 10.3 4 Sur 15 Sur 0 -- -- 83
2019-10-22 03:00:00 10.9 3 Sur 10 Sur 0 -- -- 79
2019-10-22 02:00:00 11.6 6 Sur 12 Sudoeste 0 -- -- 75
2019-10-22 01:00:00 12.3 6 Sudoeste 9 Oeste 0 -- -- 74
2019-10-22 00:00:00 13.6 5 Oeste 10 Oeste 0 -- -- 68
2019-10-21 23:00:00 13.9 7 Oeste 13 Oeste 0 -- -- 60
2019-10-21 22:00:00 15.2 8 Oeste 13 Oeste 0 -- -- 54
2019-10-21 21:00:00 15.3 4 Sudoeste 7 Sudoeste 0 -- -- 55
2019-10-21 20:00:00 17.7 0 Calma 8 Oeste 0 -- -- 43
2019-10-21 19:00:00 19.5 3 Norte 10 Oeste 0 -- -- 36
2019-10-21 18:00:00 20.5 0 Calma 10 Norte 0 -- -- 36
2019-10-21 17:00:00 20.5 2 Nordeste 11 Oeste 0 -- -- 37
2019-10-21 16:00:00 20.1 3 Nordeste 11 Oeste 0 -- -- 39
2019-10-21 15:00:00 19.4 5 Norte 11 Norte 0 -- -- 43
2019-10-21 14:00:00 19.1 3 Norte 11 Norte 0 -- -- 49
2019-10-21 13:00:00 17.4 3 Norte 9 Norte 0 -- -- 59
2019-10-21 12:00:00 16.2 4 Norte 10 Nordeste 0 -- -- 65
2019-10-21 11:00:00 14.4 3 Nordeste 6 Nordeste 0 -- -- 74
2019-10-21 10:00:00 11.3 2 Nordeste 5 Nordeste 0 -- -- 89
2019-10-21 09:00:00 8.8 0 Calma 6 Sur 0 -- -- 91
2019-10-21 08:00:00 8.7 5 Sur 6 Sur 0 -- -- 90
2019-10-21 07:00:00 9.5 0 Calma 5 Sudeste 0 -- -- 90
2019-10-21 06:00:00 9.5 0 Calma 5 Sur 0 -- -- 89
2019-10-21 05:00:00 10.5 0 Calma 4 Sur 0 -- -- 87
2019-10-21 04:00:00 10.9 0 Calma 8 Sur 0 -- -- 86
2019-10-21 03:00:00 11 3 Sur 8 Sudoeste 0 -- -- 86
2019-10-21 02:00:00 11.4 5 Sudoeste 11 Sur 0 -- -- 85
2019-10-21 01:00:00 11.8 5 Sur 11 Sur 0 -- -- 83
2019-10-21 00:00:00 13 7 Sudoeste 12 Sudoeste 0 -- -- 81
2019-10-20 23:00:00 12.8 6 Sudoeste 10 Oeste 0 -- -- 78
2019-10-20 22:00:00 14.6 3 Oeste 15 Oeste 0 -- -- 71
2019-10-20 21:00:00 15.1 10 Oeste 16 Sudoeste 0 -- -- 68
2019-10-20 20:00:00 16.3 9 Sudoeste 19 Oeste 0 -- -- 58
2019-10-20 19:00:00 17.3 10 Sudoeste 21 Oeste 0 -- -- 52
2019-10-20 18:00:00 19.1 12 Oeste 25 Oeste 0 -- -- 39
2019-10-20 17:00:00 19.2 14 Oeste 27 Oeste 0 -- -- 40
2019-10-20 16:00:00 18.7 15 Oeste 25 Oeste 0 -- -- 44
2019-10-20 15:00:00 17.9 8 Sudoeste 24 Sudoeste 0 -- -- 49
2019-10-20 14:00:00 18.2 8 Oeste 22 Oeste 0 -- -- 52
2019-10-20 13:00:00 17 10 Oeste 21 Sudoeste 0 -- -- 57
2019-10-20 12:00:00 15 11 Oeste 21 Oeste 0 -- -- 74
2019-10-20 11:00:00 14.2 8 Oeste 18 Oeste 0 -- -- 79
2019-10-20 10:00:00 12.9 9 Sudoeste 15 Oeste 0 -- -- 91
2019-10-20 09:00:00 11.7 6 Sudoeste 12 Sudoeste 0 -- -- 93
2019-10-20 08:00:00 12.4 7 Sudoeste 13 Oeste 0 -- -- 92
2019-10-20 07:00:00 13.3 7 Oeste 14 Sudoeste 0 -- -- 91
2019-10-20 06:00:00 13.8 8 Sudoeste 14 Oeste 0 -- -- 90
2019-10-20 05:00:00 14.5 10 Sudoeste 20 Oeste 0.3 -- -- 90
2019-10-20 04:00:00 14.8 13 Oeste 24 Sudoeste 0.1 -- -- 91
2019-10-20 03:00:00 15.2 11 Oeste 22 Sudoeste 0.3 -- -- 91
2019-10-20 02:00:00 15.7 9 Oeste 27 Oeste 1.6 -- -- 91
2019-10-20 01:00:00 15.9 12 Sudoeste 21 Sudoeste 0 -- -- 90
2019-10-20 00:00:00 15.9 11 Oeste 19 Oeste 1 -- -- 90
2019-10-19 23:00:00 15.6 9 Noroeste 34 Oeste 4.8 -- -- 92
2019-10-19 22:00:00 18.2 20 Sudoeste 56 Sudoeste 7.7 -- -- 93
2019-10-19 21:00:00 20 25 Sudoeste 53 Sudoeste 0.4 -- -- 84
2019-10-19 20:00:00 21.5 34 Sudoeste 54 Sudoeste 0 -- -- 66
2019-10-19 19:00:00 22 24 Sudoeste 49 Sudoeste 0 -- -- 61
2019-10-19 18:00:00 22.2 25 Sudoeste 48 Sudoeste 0 -- -- 62
2019-10-19 17:00:00 22.9 24 Sudoeste 41 Sudoeste 0 -- -- 60
2019-10-19 16:00:00 22.4 23 Sudoeste 39 Sudoeste 0 -- -- 57
2019-10-19 15:00:00 21.5 23 Sudoeste 44 Oeste 0 -- -- 58
2019-10-19 14:00:00 22.5 22 Oeste 35 Sudoeste 0 -- -- 53
2019-10-19 13:00:00 23.1 16 Sudoeste 30 Sudoeste 0 -- -- 53
2019-10-19 12:00:00 21.3 15 Sudoeste 23 Sudoeste 0 -- -- 57
2019-10-19 11:00:00 19.6 13 Sudoeste 23 Sudoeste 0 -- -- 68
2019-10-19 10:00:00 18.3 9 Sudoeste 15 Sudoeste 0 -- -- 79
2019-10-19 09:00:00 17.5 9 Sudoeste 15 Sudoeste 0 -- -- 85
2019-10-19 08:00:00 17 8 Sudoeste 13 Sudoeste 0 -- -- 86
2019-10-19 07:00:00 17.3 7 Sudoeste 12 Sudoeste 0 -- -- 87
2019-10-19 06:00:00 16.4 7 Sudoeste 11 Sudoeste 0 -- -- 87
2019-10-19 05:00:00 16.3 5 Sudoeste 15 Oeste 0 -- -- 88
2019-10-19 04:00:00 17 8 Sudoeste 12 Sudoeste 0 -- -- 87
2019-10-19 03:00:00 17.5 7 Sudoeste 12 Sudoeste 0 -- -- 86
2019-10-19 02:00:00 18.5 7 Sudoeste 15 Sudoeste 0 -- -- 83
2019-10-19 01:00:00 18.9 7 Oeste 13 Oeste 0 -- -- 86
2019-10-19 00:00:00 18.7 8 Oeste 13 Oeste 0 -- -- 88
2019-10-18 23:00:00 18.6 9 Oeste 15 Oeste 0 -- -- 84
2019-10-18 22:00:00 19.5 10 Oeste 21 Oeste 0 -- -- 83
2019-10-18 21:00:00 20.4 10 Oeste 18 Oeste 0 -- -- 76
2019-10-18 20:00:00 21.7 5 Oeste 18 Sudoeste 0 -- -- 69
2019-10-18 19:00:00 23.4 4 Oeste 16 Oeste 0 -- -- 62
2019-10-18 18:00:00 24.1 4 Oeste 27 Oeste 0 -- -- 59
2019-10-18 17:00:00 24.3 8 Oeste 17 Sudoeste 0 -- -- 55
2019-10-18 16:00:00 25 3 Oeste 19 Oeste 0 -- -- 52
2019-10-18 15:00:00 24.7 6 Oeste 17 Oeste 0 -- -- 54
2019-10-18 14:00:00 24.2 5 Sudoeste 14 Sudoeste 0 -- -- 57
2019-10-18 13:00:00 22.7 6 Sudoeste 12 Sudoeste 0 -- -- 63
2019-10-18 12:00:00 21 5 Oeste 14 Oeste 0 -- -- 70
2019-10-18 11:00:00 19.3 6 Oeste 14 Oeste 0 -- -- 75
2019-10-18 10:00:00 17.5 6 Sudoeste 8 Sudoeste 0 -- -- 73
2019-10-18 09:00:00 13.6 0 Calma 6 Sur 0 -- -- 82
2019-10-18 08:00:00 13.1 4 Sur 9 Sur 0 -- -- 80
2019-10-18 07:00:00 14 4 Sur 6 Sur 0 -- -- 80
2019-10-18 06:00:00 14.5 4 Sudoeste 9 Sudoeste 0 -- -- 79
2019-10-18 05:00:00 15.2 5 Sudoeste 12 Sudoeste 0 -- -- 79
2019-10-18 04:00:00 15.6 8 Sudoeste 10 Sudoeste 0 -- -- 81
2019-10-18 03:00:00 16.1 7 Sudoeste 12 Sur 0 -- -- 79
2019-10-18 02:00:00 16.5 8 Sudoeste 12 Sudoeste 0 -- -- 79
2019-10-18 01:00:00 17 8 Sudoeste 12 Sudoeste 0 -- -- 77
2019-10-18 00:00:00 17.8 9 Sudoeste 14 Sudoeste 0 -- -- 78